sensor_id;sensor_type;location;lat;lon;timestamp;P1;durP1;ratioP1;P2;durP2;ratioP2
549;SDS011;20066;48.764;9.176;2023-09-07T00:00:22;8.40;;;4.63;;
549;SDS011;20066;48.764;9.176;2023-09-07T00:02:54;6.30;;;4.23;;
549;SDS011;20066;48.764;9.176;2023-09-07T00:05:24;7.60;;;4.80;;
549;SDS011;20066;48.764;9.176;2023-09-07T00:08:01;7.43;;;4.70;;
549;SDS011;20066;48.764;9.176;2023-09-07T00:10:35;8.83;;;5.00;;
549;SDS011;20066;48.764;9.176;2023-09-07T00:13:05;7.80;;;4.80;;
549;SDS011;20066;48.764;9.176;2023-09-07T00:15:35;8.40;;;4.83;;
549;SDS011;20066;48.764;9.176;2023-09-07T00:18:09;7.47;;;4.93;;
549;SDS011;20066;48.764;9.176;2023-09-07T00:20:37;14.37;;;5.33;;
549;SDS011;20066;48.764;9.176;2023-09-07T00:23:07;7.67;;;5.10;;
549;SDS011;20066;48.764;9.176;2023-09-07T00:25:35;7.60;;;4.60;;
549;SDS011;20066;48.764;9.176;2023-09-07T00:28:04;9.10;;;5.37;;
549;SDS011;20066;48.764;9.176;2023-09-07T00:30:34;9.57;;;5.47;;
549;SDS011;20066;48.764;9.176;2023-09-07T00:33:02;9.73;;;5.00;;
549;SDS011;20066;48.764;9.176;2023-09-07T00:35:32;8.13;;;5.07;;
549;SDS011;20066;48.764;9.176;2023-09-07T00:38:01;12.80;;;6.27;;
549;SDS011;20066;48.764;9.176;2023-09-07T00:40:29;8.10;;;5.27;;
549;SDS011;20066;48.764;9.176;2023-09-07T00:42:58;7.40;;;4.90;;
549;SDS011;20066;48.764;9.176;2023-09-07T00:45:27;6.93;;;5.07;;
549;SDS011;20066;48.764;9.176;2023-09-07T00:47:56;10.80;;;4.93;;
549;SDS011;20066;48.764;9.176;2023-09-07T00:50:25;9.80;;;4.80;;
549;SDS011;20066;48.764;9.176;2023-09-07T00:52:55;8.50;;;4.57;;
549;SDS011;20066;48.764;9.176;2023-09-07T00:55:23;7.03;;;4.90;;
549;SDS011;20066;48.764;9.176;2023-09-07T00:57:51;6.40;;;4.50;;
549;SDS011;20066;48.764;9.176;2023-09-07T01:00:20;7.30;;;5.07;;
549;SDS011;20066;48.764;9.176;2023-09-07T01:02:49;8.70;;;5.67;;
549;SDS011;20066;48.764;9.176;2023-09-07T01:05:18;10.47;;;4.77;;
549;SDS011;20066;48.764;9.176;2023-09-07T01:07:50;8.93;;;5.17;;
549;SDS011;20066;48.764;9.176;2023-09-07T01:10:26;6.90;;;4.50;;
549;SDS011;20066;48.764;9.176;2023-09-07T01:12:55;7.30;;;4.97;;
549;SDS011;20066;48.764;9.176;2023-09-07T01:15:23;7.90;;;4.70;;
549;SDS011;20066;48.764;9.176;2023-09-07T01:17:52;9.30;;;4.60;;
549;SDS011;20066;48.764;9.176;2023-09-07T01:20:35;5.93;;;4.00;;
549;SDS011;20066;48.764;9.176;2023-09-07T01:23:08;10.63;;;4.97;;
549;SDS011;20066;48.764;9.176;2023-09-07T01:25:39;9.80;;;5.00;;
549;SDS011;20066;48.764;9.176;2023-09-07T01:28:09;10.10;;;4.60;;
549;SDS011;20066;48.764;9.176;2023-09-07T01:30:39;7.40;;;4.87;;
549;SDS011;20066;48.764;9.176;2023-09-07T01:33:08;6.93;;;4.97;;
549;SDS011;20066;48.764;9.176;2023-09-07T01:35:36;6.97;;;4.30;;
549;SDS011;20066;48.764;9.176;2023-09-07T01:38:09;7.00;;;4.50;;
549;SDS011;20066;48.764;9.176;2023-09-07T01:40:37;8.37;;;4.67;;
549;SDS011;20066;48.764;9.176;2023-09-07T01:43:06;11.33;;;4.50;;
549;SDS011;20066;48.764;9.176;2023-09-07T01:45:35;6.37;;;4.30;;
549;SDS011;20066;48.764;9.176;2023-09-07T01:48:05;10.17;;;4.53;;
549;SDS011;20066;48.764;9.176;2023-09-07T01:50:35;9.17;;;4.67;;
549;SDS011;20066;48.764;9.176;2023-09-07T01:53:03;11.77;;;4.63;;
549;SDS011;20066;48.764;9.176;2023-09-07T01:55:33;8.97;;;4.80;;
549;SDS011;20066;48.764;9.176;2023-09-07T01:58:02;8.10;;;4.33;;
549;SDS011;20066;48.764;9.176;2023-09-07T02:00:31;8.17;;;5.10;;
549;SDS011;20066;48.764;9.176;2023-09-07T02:03:04;11.30;;;4.77;;
549;SDS011;20066;48.764;9.176;2023-09-07T02:05:33;7.40;;;4.70;;
549;SDS011;20066;48.764;9.176;2023-09-07T02:08:02;8.57;;;4.77;;
549;SDS011;20066;48.764;9.176;2023-09-07T02:10:31;8.10;;;4.63;;
549;SDS011;20066;48.764;9.176;2023-09-07T02:13:00;6.30;;;4.20;;
549;SDS011;20066;48.764;9.176;2023-09-07T02:15:30;5.60;;;4.07;;
549;SDS011;20066;48.764;9.176;2023-09-07T02:17:59;7.80;;;4.53;;
549;SDS011;20066;48.764;9.176;2023-09-07T02:20:30;6.17;;;4.27;;
549;SDS011;20066;48.764;9.176;2023-09-07T02:22:58;8.20;;;4.70;;
549;SDS011;20066;48.764;9.176;2023-09-07T02:25:27;9.50;;;4.67;;
549;SDS011;20066;48.764;9.176;2023-09-07T02:27:57;8.97;;;4.43;;
549;SDS011;20066;48.764;9.176;2023-09-07T02:30:27;6.63;;;4.53;;
549;SDS011;20066;48.764;9.176;2023-09-07T02:32:55;7.73;;;4.93;;
549;SDS011;20066;48.764;9.176;2023-09-07T02:35:24;10.00;;;4.73;;
549;SDS011;20066;48.764;9.176;2023-09-07T02:37:53;5.93;;;4.37;;
549;SDS011;20066;48.764;9.176;2023-09-07T02:40:21;6.57;;;4.73;;
549;SDS011;20066;48.764;9.176;2023-09-07T02:42:49;8.03;;;4.70;;
549;SDS011;20066;48.764;9.176;2023-09-07T02:45:18;7.70;;;4.43;;
549;SDS011;20066;48.764;9.176;2023-09-07T02:47:47;6.90;;;4.47;;
549;SDS011;20066;48.764;9.176;2023-09-07T02:50:17;7.37;;;5.10;;
549;SDS011;20066;48.764;9.176;2023-09-07T02:52:45;9.87;;;4.50;;
549;SDS011;20066;48.764;9.176;2023-09-07T02:55:14;6.47;;;4.63;;
549;SDS011;20066;48.764;9.176;2023-09-07T02:57:42;10.10;;;5.67;;
549;SDS011;20066;48.764;9.176;2023-09-07T03:00:11;7.50;;;4.70;;
549;SDS011;20066;48.764;9.176;2023-09-07T03:02:44;8.40;;;4.40;;
549;SDS011;20066;48.764;9.176;2023-09-07T03:05:21;9.50;;;4.70;;
549;SDS011;20066;48.764;9.176;2023-09-07T03:07:54;9.10;;;4.93;;
549;SDS011;20066;48.764;9.176;2023-09-07T03:10:22;7.83;;;4.50;;
549;SDS011;20066;48.764;9.176;2023-09-07T03:12:51;6.00;;;4.63;;
549;SDS011;20066;48.764;9.176;2023-09-07T03:15:21;6.83;;;4.40;;
549;SDS011;20066;48.764;9.176;2023-09-07T03:17:49;8.47;;;4.63;;
549;SDS011;20066;48.764;9.176;2023-09-07T03:20:20;11.97;;;4.90;;
549;SDS011;20066;48.764;9.176;2023-09-07T03:22:48;10.40;;;4.83;;
549;SDS011;20066;48.764;9.176;2023-09-07T03:25:17;11.37;;;4.77;;
549;SDS011;20066;48.764;9.176;2023-09-07T03:27:45;11.00;;;4.43;;
549;SDS011;20066;48.764;9.176;2023-09-07T03:30:13;7.37;;;4.70;;
549;SDS011;20066;48.764;9.176;2023-09-07T03:32:42;8.47;;;4.53;;
549;SDS011;20066;48.764;9.176;2023-09-07T03:35:10;7.60;;;4.50;;
549;SDS011;20066;48.764;9.176;2023-09-07T03:37:41;7.13;;;4.40;;
549;SDS011;20066;48.764;9.176;2023-09-07T03:40:10;12.47;;;4.60;;
549;SDS011;20066;48.764;9.176;2023-09-07T03:42:39;7.93;;;4.87;;
549;SDS011;20066;48.764;9.176;2023-09-07T03:45:09;6.97;;;4.50;;
549;SDS011;20066;48.764;9.176;2023-09-07T03:47:38;6.40;;;4.73;;
549;SDS011;20066;48.764;9.176;2023-09-07T03:50:07;7.20;;;4.47;;
549;SDS011;20066;48.764;9.176;2023-09-07T03:52:37;7.40;;;4.70;;
549;SDS011;20066;48.764;9.176;2023-09-07T03:55:09;13.67;;;5.37;;
549;SDS011;20066;48.764;9.176;2023-09-07T03:57:39;7.10;;;4.70;;
549;SDS011;20066;48.764;9.176;2023-09-07T04:00:12;7.97;;;4.50;;
549;SDS011;20066;48.764;9.176;2023-09-07T04:02:42;9.80;;;5.83;;
549;SDS011;20066;48.764;9.176;2023-09-07T04:05:13;7.80;;;4.93;;
549;SDS011;20066;48.764;9.176;2023-09-07T04:07:41;8.23;;;4.40;;
549;SDS011;20066;48.764;9.176;2023-09-07T04:10:14;9.40;;;4.90;;
549;SDS011;20066;48.764;9.176;2023-09-07T04:12:45;7.93;;;4.83;;
549;SDS011;20066;48.764;9.176;2023-09-07T04:15:14;7.67;;;5.03;;
549;SDS011;20066;48.764;9.176;2023-09-07T04:17:42;8.27;;;5.40;;
549;SDS011;20066;48.764;9.176;2023-09-07T04:20:10;13.87;;;7.60;;
549;SDS011;20066;48.764;9.176;2023-09-07T04:22:39;10.20;;;5.83;;
549;SDS011;20066;48.764;9.176;2023-09-07T04:25:08;8.80;;;5.20;;
549;SDS011;20066;48.764;9.176;2023-09-07T04:27:37;10.47;;;5.40;;
549;SDS011;20066;48.764;9.176;2023-09-07T04:30:07;8.47;;;5.27;;
549;SDS011;20066;48.764;9.176;2023-09-07T04:32:37;8.23;;;5.20;;
549;SDS011;20066;48.764;9.176;2023-09-07T04:35:06;6.83;;;4.73;;
549;SDS011;20066;48.764;9.176;2023-09-07T04:37:35;8.30;;;5.37;;
549;SDS011;20066;48.764;9.176;2023-09-07T04:40:05;7.90;;;5.20;;
549;SDS011;20066;48.764;9.176;2023-09-07T04:42:34;6.77;;;4.30;;
549;SDS011;20066;48.764;9.176;2023-09-07T04:45:06;11.27;;;5.20;;
549;SDS011;20066;48.764;9.176;2023-09-07T04:47:35;9.67;;;5.43;;
549;SDS011;20066;48.764;9.176;2023-09-07T04:50:05;6.90;;;4.77;;
549;SDS011;20066;48.764;9.176;2023-09-07T04:52:34;7.07;;;4.70;;
549;SDS011;20066;48.764;9.176;2023-09-07T04:55:15;7.77;;;5.03;;
549;SDS011;20066;48.764;9.176;2023-09-07T04:57:45;8.07;;;4.97;;
549;SDS011;20066;48.764;9.176;2023-09-07T05:00:17;9.77;;;5.23;;
549;SDS011;20066;48.764;9.176;2023-09-07T05:02:47;7.60;;;4.97;;
549;SDS011;20066;48.764;9.176;2023-09-07T05:05:18;9.67;;;4.90;;
549;SDS011;20066;48.764;9.176;2023-09-07T05:07:47;7.37;;;4.70;;
549;SDS011;20066;48.764;9.176;2023-09-07T05:10:16;9.93;;;5.27;;
549;SDS011;20066;48.764;9.176;2023-09-07T05:12:47;12.30;;;5.53;;
549;SDS011;20066;48.764;9.176;2023-09-07T05:15:21;7.80;;;5.17;;
549;SDS011;20066;48.764;9.176;2023-09-07T05:17:56;9.90;;;6.00;;
549;SDS011;20066;48.764;9.176;2023-09-07T05:20:26;11.20;;;6.20;;
549;SDS011;20066;48.764;9.176;2023-09-07T05:22:57;7.07;;;4.90;;
549;SDS011;20066;48.764;9.176;2023-09-07T05:25:27;7.80;;;5.20;;
549;SDS011;20066;48.764;9.176;2023-09-07T05:27:56;9.60;;;5.30;;
549;SDS011;20066;48.764;9.176;2023-09-07T05:30:25;8.03;;;4.93;;
549;SDS011;20066;48.764;9.176;2023-09-07T05:32:54;10.80;;;5.07;;
549;SDS011;20066;48.764;9.176;2023-09-07T05:35:24;14.30;;;5.63;;
549;SDS011;20066;48.764;9.176;2023-09-07T05:37:56;11.13;;;5.33;;
549;SDS011;20066;48.764;9.176;2023-09-07T05:40:26;9.33;;;5.10;;
549;SDS011;20066;48.764;9.176;2023-09-07T05:42:55;8.40;;;5.60;;
549;SDS011;20066;48.764;9.176;2023-09-07T05:45:23;14.43;;;5.20;;
549;SDS011;20066;48.764;9.176;2023-09-07T05:47:53;8.60;;;5.83;;
549;SDS011;20066;48.764;9.176;2023-09-07T05:50:22;10.73;;;5.00;;
549;SDS011;20066;48.764;9.176;2023-09-07T05:52:50;8.83;;;5.73;;
549;SDS011;20066;48.764;9.176;2023-09-07T05:55:19;7.40;;;4.97;;
549;SDS011;20066;48.764;9.176;2023-09-07T05:57:48;15.20;;;5.90;;
549;SDS011;20066;48.764;9.176;2023-09-07T06:00:16;16.80;;;5.50;;
549;SDS011;20066;48.764;9.176;2023-09-07T06:02:46;14.47;;;6.23;;
549;SDS011;20066;48.764;9.176;2023-09-07T06:05:17;11.10;;;6.40;;
549;SDS011;20066;48.764;9.176;2023-09-07T06:07:46;10.10;;;6.03;;
549;SDS011;20066;48.764;9.176;2023-09-07T06:10:14;11.63;;;6.43;;
549;SDS011;20066;48.764;9.176;2023-09-07T06:12:44;9.43;;;6.10;;
549;SDS011;20066;48.764;9.176;2023-09-07T06:15:13;10.97;;;6.30;;
549;SDS011;20066;48.764;9.176;2023-09-07T06:17:41;10.37;;;6.97;;
549;SDS011;20066;48.764;9.176;2023-09-07T06:20:12;10.87;;;6.50;;
549;SDS011;20066;48.764;9.176;2023-09-07T06:22:40;9.73;;;6.27;;
549;SDS011;20066;48.764;9.176;2023-09-07T06:25:12;10.23;;;6.87;;
549;SDS011;20066;48.764;9.176;2023-09-07T06:27:45;11.93;;;6.80;;
549;SDS011;20066;48.764;9.176;2023-09-07T06:30:14;14.27;;;7.30;;
549;SDS011;20066;48.764;9.176;2023-09-07T06:32:43;12.70;;;7.60;;
549;SDS011;20066;48.764;9.176;2023-09-07T06:35:15;10.23;;;6.40;;
549;SDS011;20066;48.764;9.176;2023-09-07T06:37:46;14.70;;;7.10;;
549;SDS011;20066;48.764;9.176;2023-09-07T06:40:15;13.40;;;7.03;;
549;SDS011;20066;48.764;9.176;2023-09-07T06:42:47;12.70;;;7.20;;
549;SDS011;20066;48.764;9.176;2023-09-07T06:45:18;11.93;;;7.60;;
549;SDS011;20066;48.764;9.176;2023-09-07T06:47:50;11.83;;;7.40;;
549;SDS011;20066;48.764;9.176;2023-09-07T06:50:21;13.20;;;7.13;;
549;SDS011;20066;48.764;9.176;2023-09-07T06:52:50;14.43;;;7.13;;
549;SDS011;20066;48.764;9.176;2023-09-07T07:00:40;13.13;;;7.13;;
549;SDS011;20066;48.764;9.176;2023-09-07T07:08:43;13.40;;;7.90;;
549;SDS011;20066;48.764;9.176;2023-09-07T07:11:13;15.60;;;7.70;;
549;SDS011;20066;48.764;9.176;2023-09-07T07:13:51;16.40;;;8.10;;
549;SDS011;20066;48.764;9.176;2023-09-07T07:16:33;11.97;;;7.80;;
549;SDS011;20066;48.764;9.176;2023-09-07T07:19:07;15.80;;;8.37;;
549;SDS011;20066;48.764;9.176;2023-09-07T07:21:39;11.63;;;7.70;;
549;SDS011;20066;48.764;9.176;2023-09-07T07:24:09;16.83;;;7.53;;
549;SDS011;20066;48.764;9.176;2023-09-07T07:26:38;11.53;;;7.67;;
549;SDS011;20066;48.764;9.176;2023-09-07T07:29:07;15.53;;;7.80;;
549;SDS011;20066;48.764;9.176;2023-09-07T07:31:37;14.53;;;8.33;;
549;SDS011;20066;48.764;9.176;2023-09-07T07:34:06;14.50;;;9.00;;
549;SDS011;20066;48.764;9.176;2023-09-07T07:36:34;14.90;;;8.80;;
549;SDS011;20066;48.764;9.176;2023-09-07T07:39:04;23.83;;;8.23;;
549;SDS011;20066;48.764;9.176;2023-09-07T07:41:35;15.90;;;7.70;;
549;SDS011;20066;48.764;9.176;2023-09-07T07:44:08;12.63;;;7.80;;
549;SDS011;20066;48.764;9.176;2023-09-07T07:46:37;17.47;;;8.57;;
549;SDS011;20066;48.764;9.176;2023-09-07T07:49:06;14.23;;;7.90;;
549;SDS011;20066;48.764;9.176;2023-09-07T07:51:36;12.90;;;6.83;;
549;SDS011;20066;48.764;9.176;2023-09-07T07:54:08;17.73;;;7.77;;
549;SDS011;20066;48.764;9.176;2023-09-07T07:56:42;12.33;;;6.97;;
549;SDS011;20066;48.764;9.176;2023-09-07T07:59:24;13.13;;;6.87;;
549;SDS011;20066;48.764;9.176;2023-09-07T08:02:04;16.47;;;7.30;;
549;SDS011;20066;48.764;9.176;2023-09-07T08:04:59;11.90;;;6.67;;
549;SDS011;20066;48.764;9.176;2023-09-07T08:07:36;13.23;;;6.90;;
549;SDS011;20066;48.764;9.176;2023-09-07T08:13:04;10.77;;;6.90;;
549;SDS011;20066;48.764;9.176;2023-09-07T08:15:46;9.63;;;5.63;;
549;SDS011;20066;48.764;9.176;2023-09-07T08:18:39;8.40;;;6.17;;
549;SDS011;20066;48.764;9.176;2023-09-07T08:21:42;11.07;;;6.07;;
549;SDS011;20066;48.764;9.176;2023-09-07T08:24:33;10.70;;;5.77;;
549;SDS011;20066;48.764;9.176;2023-09-07T08:27:42;9.80;;;5.07;;
549;SDS011;20066;48.764;9.176;2023-09-07T08:33:55;9.47;;;5.90;;
549;SDS011;20066;48.764;9.176;2023-09-07T08:36:27;11.80;;;6.87;;
549;SDS011;20066;48.764;9.176;2023-09-07T08:39:01;10.07;;;5.97;;
549;SDS011;20066;48.764;9.176;2023-09-07T08:41:36;10.13;;;5.07;;
549;SDS011;20066;48.764;9.176;2023-09-07T08:44:27;12.13;;;5.13;;
549;SDS011;20066;48.764;9.176;2023-09-07T08:47:04;9.70;;;5.50;;
549;SDS011;20066;48.764;9.176;2023-09-07T08:49:34;15.87;;;6.73;;
549;SDS011;20066;48.764;9.176;2023-09-07T08:52:14;14.60;;;6.80;;
549;SDS011;20066;48.764;9.176;2023-09-07T08:54:44;10.37;;;5.00;;
549;SDS011;20066;48.764;9.176;2023-09-07T08:57:15;10.07;;;6.10;;
549;SDS011;20066;48.764;9.176;2023-09-07T08:59:46;9.87;;;7.30;;
549;SDS011;20066;48.764;9.176;2023-09-07T09:02:54;9.50;;;5.80;;
549;SDS011;20066;48.764;9.176;2023-09-07T09:05:50;11.30;;;6.10;;
549;SDS011;20066;48.764;9.176;2023-09-07T09:08:54;10.20;;;5.93;;
549;SDS011;20066;48.764;9.176;2023-09-07T09:12:06;15.17;;;6.97;;
549;SDS011;20066;48.764;9.176;2023-09-07T09:15:04;13.23;;;5.80;;
549;SDS011;20066;48.764;9.176;2023-09-07T09:31:20;10.10;;;6.27;;
549;SDS011;20066;48.764;9.176;2023-09-07T09:33:50;8.50;;;4.67;;
549;SDS011;20066;48.764;9.176;2023-09-07T09:36:19;10.30;;;6.17;;
549;SDS011;20066;48.764;9.176;2023-09-07T09:38:56;15.10;;;6.40;;
549;SDS011;20066;48.764;9.176;2023-09-07T09:41:25;11.77;;;6.20;;
549;SDS011;20066;48.764;9.176;2023-09-07T09:44:00;12.70;;;6.60;;
549;SDS011;20066;48.764;9.176;2023-09-07T09:46:37;9.90;;;6.20;;
549;SDS011;20066;48.764;9.176;2023-09-07T09:49:07;10.90;;;6.00;;
549;SDS011;20066;48.764;9.176;2023-09-07T09:51:39;10.20;;;6.63;;
549;SDS011;20066;48.764;9.176;2023-09-07T09:54:11;9.50;;;5.43;;
549;SDS011;20066;48.764;9.176;2023-09-07T09:56:41;11.87;;;6.17;;
549;SDS011;20066;48.764;9.176;2023-09-07T09:59:14;11.70;;;6.60;;
549;SDS011;20066;48.764;9.176;2023-09-07T10:01:44;11.47;;;6.10;;
549;SDS011;20066;48.764;9.176;2023-09-07T10:04:17;11.77;;;7.13;;
549;SDS011;20066;48.764;9.176;2023-09-07T10:06:50;10.77;;;6.83;;
549;SDS011;20066;48.764;9.176;2023-09-07T10:09:22;9.57;;;6.60;;
549;SDS011;20066;48.764;9.176;2023-09-07T10:11:52;10.20;;;6.73;;
549;SDS011;20066;48.764;9.176;2023-09-07T10:14:23;9.87;;;6.03;;
549;SDS011;20066;48.764;9.176;2023-09-07T10:16:52;8.83;;;6.17;;
549;SDS011;20066;48.764;9.176;2023-09-07T10:19:26;9.07;;;5.37;;
549;SDS011;20066;48.764;9.176;2023-09-07T10:21:58;16.47;;;6.80;;
549;SDS011;20066;48.764;9.176;2023-09-07T10:24:32;13.33;;;6.40;;
549;SDS011;20066;48.764;9.176;2023-09-07T10:27:08;10.17;;;5.83;;
549;SDS011;20066;48.764;9.176;2023-09-07T10:29:42;9.43;;;6.57;;
549;SDS011;20066;48.764;9.176;2023-09-07T10:32:13;11.30;;;6.57;;
549;SDS011;20066;48.764;9.176;2023-09-07T10:34:46;9.27;;;6.17;;
549;SDS011;20066;48.764;9.176;2023-09-07T10:37:15;12.10;;;6.43;;
549;SDS011;20066;48.764;9.176;2023-09-07T10:39:44;11.60;;;5.80;;
549;SDS011;20066;48.764;9.176;2023-09-07T10:42:20;11.47;;;6.73;;
549;SDS011;20066;48.764;9.176;2023-09-07T10:44:53;10.60;;;6.93;;
549;SDS011;20066;48.764;9.176;2023-09-07T10:47:22;12.00;;;6.77;;
549;SDS011;20066;48.764;9.176;2023-09-07T10:49:52;11.93;;;6.47;;
549;SDS011;20066;48.764;9.176;2023-09-07T10:52:21;10.30;;;6.73;;
549;SDS011;20066;48.764;9.176;2023-09-07T10:55:05;18.07;;;6.57;;
549;SDS011;20066;48.764;9.176;2023-09-07T10:57:50;10.23;;;7.20;;
549;SDS011;20066;48.764;9.176;2023-09-07T11:00:21;11.73;;;7.53;;
549;SDS011;20066;48.764;9.176;2023-09-07T11:02:50;14.00;;;8.70;;
549;SDS011;20066;48.764;9.176;2023-09-07T11:05:19;13.77;;;6.77;;
549;SDS011;20066;48.764;9.176;2023-09-07T11:10:24;14.10;;;7.37;;
549;SDS011;20066;48.764;9.176;2023-09-07T11:12:52;9.27;;;6.43;;
549;SDS011;20066;48.764;9.176;2023-09-07T11:15:21;11.20;;;6.80;;
549;SDS011;20066;48.764;9.176;2023-09-07T11:17:50;10.10;;;6.30;;
549;SDS011;20066;48.764;9.176;2023-09-07T11:20:20;15.83;;;6.60;;
549;SDS011;20066;48.764;9.176;2023-09-07T11:22:49;10.03;;;6.60;;
549;SDS011;20066;48.764;9.176;2023-09-07T11:25:34;12.60;;;6.97;;
549;SDS011;20066;48.764;9.176;2023-09-07T11:28:03;10.73;;;7.70;;
549;SDS011;20066;48.764;9.176;2023-09-07T11:30:33;15.20;;;7.07;;
549;SDS011;20066;48.764;9.176;2023-09-07T11:33:02;10.70;;;6.57;;
549;SDS011;20066;48.764;9.176;2023-09-07T11:35:32;13.10;;;6.90;;
549;SDS011;20066;48.764;9.176;2023-09-07T11:38:02;11.67;;;6.97;;
549;SDS011;20066;48.764;9.176;2023-09-07T11:40:35;14.60;;;7.20;;
549;SDS011;20066;48.764;9.176;2023-09-07T11:43:03;11.77;;;7.80;;
549;SDS011;20066;48.764;9.176;2023-09-07T11:45:37;14.03;;;6.83;;
549;SDS011;20066;48.764;9.176;2023-09-07T11:48:08;12.93;;;7.40;;
549;SDS011;20066;48.764;9.176;2023-09-07T11:50:37;12.40;;;7.03;;
549;SDS011;20066;48.764;9.176;2023-09-07T11:53:07;9.40;;;6.93;;
549;SDS011;20066;48.764;9.176;2023-09-07T11:55:36;8.73;;;6.63;;
549;SDS011;20066;48.764;9.176;2023-09-07T11:58:21;24.93;;;7.30;;
549;SDS011;20066;48.764;9.176;2023-09-07T12:00:56;14.17;;;7.20;;
549;SDS011;20066;48.764;9.176;2023-09-07T12:03:24;8.90;;;6.53;;
549;SDS011;20066;48.764;9.176;2023-09-07T12:05:52;8.37;;;6.17;;
549;SDS011;20066;48.764;9.176;2023-09-07T12:08:20;8.80;;;5.70;;
549;SDS011;20066;48.764;9.176;2023-09-07T12:10:48;13.37;;;6.20;;
549;SDS011;20066;48.764;9.176;2023-09-07T12:13:16;10.07;;;6.00;;
549;SDS011;20066;48.764;9.176;2023-09-07T12:15:44;8.80;;;6.70;;
549;SDS011;20066;48.764;9.176;2023-09-07T12:18:14;8.67;;;6.40;;
549;SDS011;20066;48.764;9.176;2023-09-07T12:20:42;10.47;;;6.80;;
549;SDS011;20066;48.764;9.176;2023-09-07T12:23:11;15.43;;;6.80;;
549;SDS011;20066;48.764;9.176;2023-09-07T12:25:39;7.77;;;5.70;;
549;SDS011;20066;48.764;9.176;2023-09-07T12:28:06;12.03;;;5.83;;
549;SDS011;20066;48.764;9.176;2023-09-07T12:30:35;9.97;;;6.00;;
549;SDS011;20066;48.764;9.176;2023-09-07T12:33:03;9.60;;;5.73;;
549;SDS011;20066;48.764;9.176;2023-09-07T12:35:32;9.20;;;5.97;;
549;SDS011;20066;48.764;9.176;2023-09-07T12:38:00;10.13;;;6.37;;
549;SDS011;20066;48.764;9.176;2023-09-07T12:40:29;9.20;;;5.67;;
549;SDS011;20066;48.764;9.176;2023-09-07T12:43:00;8.20;;;5.60;;
549;SDS011;20066;48.764;9.176;2023-09-07T12:45:28;7.90;;;5.40;;
549;SDS011;20066;48.764;9.176;2023-09-07T12:47:56;8.90;;;5.97;;
549;SDS011;20066;48.764;9.176;2023-09-07T12:50:25;10.70;;;5.40;;
549;SDS011;20066;48.764;9.176;2023-09-07T12:52:55;7.20;;;5.07;;
549;SDS011;20066;48.764;9.176;2023-09-07T12:55:23;12.57;;;5.13;;
549;SDS011;20066;48.764;9.176;2023-09-07T12:57:53;7.70;;;5.50;;
549;SDS011;20066;48.764;9.176;2023-09-07T13:00:21;8.90;;;5.50;;
549;SDS011;20066;48.764;9.176;2023-09-07T13:02:49;17.53;;;6.20;;
549;SDS011;20066;48.764;9.176;2023-09-07T13:05:17;8.70;;;5.33;;
549;SDS011;20066;48.764;9.176;2023-09-07T13:07:45;11.07;;;6.27;;
549;SDS011;20066;48.764;9.176;2023-09-07T13:10:14;8.00;;;5.00;;
549;SDS011;20066;48.764;9.176;2023-09-07T13:12:42;7.90;;;5.60;;
549;SDS011;20066;48.764;9.176;2023-09-07T13:15:10;6.53;;;4.90;;
549;SDS011;20066;48.764;9.176;2023-09-07T13:17:39;7.90;;;5.57;;
549;SDS011;20066;48.764;9.176;2023-09-07T13:20:07;7.60;;;4.93;;
549;SDS011;20066;48.764;9.176;2023-09-07T13:22:36;8.60;;;5.70;;
549;SDS011;20066;48.764;9.176;2023-09-07T13:25:08;8.83;;;5.00;;
549;SDS011;20066;48.764;9.176;2023-09-07T13:27:38;7.47;;;5.47;;
549;SDS011;20066;48.764;9.176;2023-09-07T13:30:06;9.50;;;5.20;;
549;SDS011;20066;48.764;9.176;2023-09-07T13:32:35;7.10;;;5.30;;
549;SDS011;20066;48.764;9.176;2023-09-07T13:35:03;7.77;;;5.20;;
549;SDS011;20066;48.764;9.176;2023-09-07T13:37:31;7.80;;;5.10;;
549;SDS011;20066;48.764;9.176;2023-09-07T13:40:02;7.37;;;5.10;;
549;SDS011;20066;48.764;9.176;2023-09-07T13:42:30;7.37;;;5.40;;
549;SDS011;20066;48.764;9.176;2023-09-07T13:45:00;11.27;;;5.27;;
549;SDS011;20066;48.764;9.176;2023-09-07T13:47:28;7.77;;;5.33;;
549;SDS011;20066;48.764;9.176;2023-09-07T13:49:56;7.87;;;5.30;;
549;SDS011;20066;48.764;9.176;2023-09-07T13:52:23;6.93;;;4.70;;
549;SDS011;20066;48.764;9.176;2023-09-07T13:54:52;7.50;;;4.60;;
549;SDS011;20066;48.764;9.176;2023-09-07T13:57:20;11.33;;;5.93;;
549;SDS011;20066;48.764;9.176;2023-09-07T13:59:48;9.60;;;4.70;;
549;SDS011;20066;48.764;9.176;2023-09-07T14:02:18;6.47;;;4.57;;
549;SDS011;20066;48.764;9.176;2023-09-07T14:04:46;9.03;;;5.60;;
549;SDS011;20066;48.764;9.176;2023-09-07T14:07:15;9.30;;;5.73;;
549;SDS011;20066;48.764;9.176;2023-09-07T14:09:44;6.37;;;5.20;;
549;SDS011;20066;48.764;9.176;2023-09-07T14:12:12;9.33;;;5.90;;
549;SDS011;20066;48.764;9.176;2023-09-07T14:14:40;8.57;;;5.80;;
549;SDS011;20066;48.764;9.176;2023-09-07T14:17:08;7.87;;;5.20;;
549;SDS011;20066;48.764;9.176;2023-09-07T14:19:37;15.53;;;5.40;;
549;SDS011;20066;48.764;9.176;2023-09-07T14:22:05;7.53;;;5.20;;
549;SDS011;20066;48.764;9.176;2023-09-07T14:24:33;9.60;;;5.10;;
549;SDS011;20066;48.764;9.176;2023-09-07T14:27:01;7.70;;;5.70;;
549;SDS011;20066;48.764;9.176;2023-09-07T14:29:29;10.83;;;5.90;;
549;SDS011;20066;48.764;9.176;2023-09-07T14:31:58;10.83;;;5.70;;
549;SDS011;20066;48.764;9.176;2023-09-07T14:34:26;8.10;;;4.80;;
549;SDS011;20066;48.764;9.176;2023-09-07T14:36:55;8.47;;;5.50;;
549;SDS011;20066;48.764;9.176;2023-09-07T14:39:23;8.73;;;4.70;;
549;SDS011;20066;48.764;9.176;2023-09-07T14:41:51;8.37;;;5.60;;
549;SDS011;20066;48.764;9.176;2023-09-07T14:44:20;8.10;;;5.20;;
549;SDS011;20066;48.764;9.176;2023-09-07T14:46:48;7.77;;;5.53;;
549;SDS011;20066;48.764;9.176;2023-09-07T14:49:17;9.37;;;5.40;;
549;SDS011;20066;48.764;9.176;2023-09-07T14:51:45;7.20;;;5.60;;
549;SDS011;20066;48.764;9.176;2023-09-07T14:54:14;8.77;;;5.23;;
549;SDS011;20066;48.764;9.176;2023-09-07T14:56:43;7.23;;;5.00;;
549;SDS011;20066;48.764;9.176;2023-09-07T14:59:10;12.77;;;5.17;;
549;SDS011;20066;48.764;9.176;2023-09-07T15:01:38;7.27;;;5.10;;
549;SDS011;20066;48.764;9.176;2023-09-07T15:04:07;7.30;;;5.10;;
549;SDS011;20066;48.764;9.176;2023-09-07T15:06:35;7.50;;;5.30;;
549;SDS011;20066;48.764;9.176;2023-09-07T15:09:04;8.33;;;5.47;;
549;SDS011;20066;48.764;9.176;2023-09-07T15:11:33;7.57;;;5.30;;
549;SDS011;20066;48.764;9.176;2023-09-07T15:14:01;6.70;;;4.67;;
549;SDS011;20066;48.764;9.176;2023-09-07T15:16:32;6.40;;;4.30;;
549;SDS011;20066;48.764;9.176;2023-09-07T15:19:00;15.73;;;6.87;;
549;SDS011;20066;48.764;9.176;2023-09-07T15:21:29;7.47;;;4.90;;
549;SDS011;20066;48.764;9.176;2023-09-07T15:23:57;6.53;;;4.63;;
549;SDS011;20066;48.764;9.176;2023-09-07T15:26:25;11.70;;;4.77;;
549;SDS011;20066;48.764;9.176;2023-09-07T15:28:54;7.90;;;4.70;;
549;SDS011;20066;48.764;9.176;2023-09-07T15:31:22;9.20;;;5.93;;
549;SDS011;20066;48.764;9.176;2023-09-07T15:33:50;10.80;;;5.67;;
549;SDS011;20066;48.764;9.176;2023-09-07T15:36:18;7.90;;;5.60;;
549;SDS011;20066;48.764;9.176;2023-09-07T15:38:46;10.00;;;4.87;;
549;SDS011;20066;48.764;9.176;2023-09-07T15:41:14;9.77;;;5.70;;
549;SDS011;20066;48.764;9.176;2023-09-07T15:43:42;10.10;;;5.87;;
549;SDS011;20066;48.764;9.176;2023-09-07T15:46:11;7.93;;;5.20;;
549;SDS011;20066;48.764;9.176;2023-09-07T15:48:39;9.87;;;6.00;;
549;SDS011;20066;48.764;9.176;2023-09-07T15:51:07;10.87;;;5.50;;
549;SDS011;20066;48.764;9.176;2023-09-07T15:53:35;12.77;;;6.03;;
549;SDS011;20066;48.764;9.176;2023-09-07T15:56:03;8.50;;;5.40;;
549;SDS011;20066;48.764;9.176;2023-09-07T15:58:31;10.87;;;5.90;;
549;SDS011;20066;48.764;9.176;2023-09-07T16:01:00;11.20;;;5.60;;
549;SDS011;20066;48.764;9.176;2023-09-07T16:03:29;7.73;;;5.40;;
549;SDS011;20066;48.764;9.176;2023-09-07T16:05:57;8.00;;;5.27;;